createdAt,value
2023-02-14T00:02:25.256Z,12.90
2023-02-14T00:04:51.743Z,13.40
2023-02-14T00:07:18.325Z,13.40
2023-02-14T00:09:44.852Z,12.10
2023-02-14T00:12:11.391Z,16.77
2023-02-14T00:14:56.493Z,13.30
2023-02-14T00:17:22.963Z,14.93
2023-02-14T00:19:49.503Z,14.47
2023-02-14T00:22:15.923Z,13.57
2023-02-14T00:24:42.405Z,18.00
2023-02-14T00:27:08.871Z,14.07
2023-02-14T00:29:35.287Z,13.63
2023-02-14T00:32:02.268Z,16.80
2023-02-14T00:34:29.098Z,13.70
2023-02-14T00:36:55.599Z,17.93
2023-02-14T00:39:22.177Z,14.80
2023-02-14T00:41:48.635Z,13.30
2023-02-14T00:44:15.258Z,13.67
2023-02-14T00:46:42.228Z,14.40
2023-02-14T00:49:09.332Z,13.03
2023-02-14T00:51:35.911Z,14.70
2023-02-14T00:54:03.354Z,18.80
2023-02-14T00:56:29.852Z,13.97
2023-02-14T00:58:56.303Z,13.27
2023-02-14T01:01:22.907Z,15.50
2023-02-14T01:03:49.582Z,12.83
2023-02-14T01:06:16.300Z,14.90
2023-02-14T01:08:42.812Z,13.43
2023-02-14T01:11:11.878Z,12.03
2023-02-14T01:13:38.603Z,13.17
2023-02-14T01:16:08.028Z,13.57
2023-02-14T01:18:34.975Z,14.30
2023-02-14T01:21:20.038Z,14.50
2023-02-14T01:23:49.369Z,14.00
2023-02-14T01:26:16.882Z,14.07
2023-02-14T01:28:44.305Z,13.20
2023-02-14T01:31:19.587Z,12.27
2023-02-14T01:33:47.890Z,13.50
2023-02-14T01:36:20.497Z,14.33
2023-02-14T01:38:47.279Z,14.77
2023-02-14T01:41:14.257Z,13.40
2023-02-14T01:43:51.472Z,18.07
2023-02-14T01:46:17.962Z,30.77
2023-02-14T01:48:45.423Z,27.23
2023-02-14T01:51:13.607Z,21.57
2023-02-14T01:53:40.156Z,17.87
2023-02-14T01:56:13.067Z,15.13
2023-02-14T01:58:45.091Z,15.90
2023-02-14T02:01:17.554Z,15.60
2023-02-14T02:03:54.748Z,13.37
2023-02-14T02:06:28.186Z,15.13
2023-02-14T02:09:08.005Z,14.53
2023-02-14T02:11:34.940Z,13.60
2023-02-14T02:14:03.481Z,14.83
2023-02-14T02:16:59.235Z,14.37
2023-02-14T02:20:03.390Z,11.80
2023-02-14T02:23:00.816Z,12.50
2023-02-14T02:25:56.236Z,13.80
2023-02-14T02:28:56.879Z,13.00
2023-02-14T02:31:42.210Z,12.47
2023-02-14T02:34:46.696Z,15.83
2023-02-14T02:37:34.120Z,12.20
2023-02-14T02:40:17.420Z,12.30
2023-02-14T02:43:02.704Z,12.00
2023-02-14T02:45:36.316Z,16.20
2023-02-14T02:48:21.958Z,11.10
2023-02-14T02:51:14.526Z,13.13
2023-02-14T02:53:44.805Z,11.50
2023-02-14T02:56:48.697Z,12.93
2023-02-14T02:59:28.924Z,11.57
2023-02-14T03:02:20.782Z,11.07
2023-02-14T03:04:55.319Z,13.53
2023-02-14T03:07:36.442Z,11.10
2023-02-14T03:10:02.849Z,14.20
2023-02-14T03:12:35.268Z,14.00
2023-02-14T03:15:20.984Z,14.10
2023-02-14T03:18:22.015Z,12.57
2023-02-14T03:21:13.220Z,12.40
2023-02-14T03:23:45.767Z,14.20
2023-02-14T03:26:22.285Z,12.37
2023-02-14T03:28:54.940Z,17.17
2023-02-14T03:31:31.177Z,12.10
2023-02-14T03:34:12.853Z,13.13
2023-02-14T03:36:50.716Z,12.77
2023-02-14T03:39:28.075Z,12.90
2023-02-14T03:42:06.476Z,13.27
2023-02-14T03:44:36.118Z,13.80
2023-02-14T03:47:07.862Z,12.50
2023-02-14T03:49:40.326Z,13.13
2023-02-14T03:52:10.721Z,14.40
2023-02-14T03:54:37.495Z,13.93
2023-02-14T03:57:28.470Z,16.20
2023-02-14T03:59:56.462Z,25.00
2023-02-14T04:02:44.859Z,14.30
2023-02-14T04:05:19.325Z,14.47
2023-02-14T04:07:52.101Z,15.17
2023-02-14T04:10:19.896Z,13.73
2023-02-14T04:12:46.971Z,13.90
2023-02-14T04:15:14.300Z,12.80
2023-02-14T04:17:59.432Z,15.73
2023-02-14T04:20:26.544Z,18.40
2023-02-14T04:22:53.464Z,19.90
2023-02-14T04:25:21.812Z,18.07
2023-02-14T04:27:48.665Z,17.20
2023-02-14T04:30:17.882Z,17.73
2023-02-14T04:32:44.738Z,14.30
2023-02-14T04:35:11.473Z,14.40
2023-02-14T04:37:38.118Z,14.27
2023-02-14T04:40:05.381Z,14.50
2023-02-14T04:42:31.839Z,15.80
2023-02-14T04:44:58.782Z,16.80
2023-02-14T04:47:25.317Z,16.90
2023-02-14T04:49:51.870Z,15.40
2023-02-14T04:52:18.333Z,19.87
2023-02-14T04:54:44.758Z,16.37
2023-02-14T04:57:11.224Z,16.00
2023-02-14T04:59:37.633Z,16.30
2023-02-14T05:02:04.312Z,17.93
2023-02-14T05:04:30.795Z,18.03
2023-02-14T05:06:57.266Z,20.57
2023-02-14T05:09:23.742Z,18.57
2023-02-14T05:11:50.169Z,19.10
2023-02-14T05:14:16.635Z,17.30
2023-02-14T05:16:43.153Z,18.00
2023-02-14T05:19:09.881Z,16.73
2023-02-14T05:21:36.422Z,18.07
2023-02-14T05:24:02.948Z,18.07
2023-02-14T05:26:29.710Z,19.07
2023-02-14T05:28:57.088Z,17.80
2023-02-14T05:31:23.799Z,17.23
2023-02-14T05:33:50.497Z,17.03
2023-02-14T05:36:16.956Z,24.67
2023-02-14T05:38:43.396Z,21.40
2023-02-14T05:41:09.891Z,17.60
2023-02-14T05:43:36.430Z,19.70
2023-02-14T05:46:02.924Z,22.10
2023-02-14T05:48:29.442Z,18.10
2023-02-14T05:50:55.884Z,19.87
2023-02-14T05:53:22.302Z,17.17
2023-02-14T05:55:48.774Z,20.07
2023-02-14T05:58:15.251Z,19.17
2023-02-14T06:00:41.767Z,20.97
2023-02-14T06:03:08.585Z,21.23
2023-02-14T06:05:35.084Z,22.37
2023-02-14T06:08:01.623Z,20.60
2023-02-14T06:10:28.210Z,21.47
2023-02-14T06:12:55.231Z,22.03
2023-02-14T06:15:22.265Z,24.63
2023-02-14T06:17:53.923Z,23.50
2023-02-14T06:20:21.013Z,26.83
2023-02-14T06:22:47.536Z,22.07
2023-02-14T06:25:14.272Z,27.03
2023-02-14T06:27:40.753Z,24.50
2023-02-14T06:30:08.058Z,25.53
2023-02-14T06:32:34.579Z,22.73
2023-02-14T06:35:01.066Z,24.50
2023-02-14T06:37:27.547Z,22.20
2023-02-14T06:39:54.057Z,21.90
2023-02-14T06:42:20.567Z,23.57
2023-02-14T06:44:46.996Z,25.00
2023-02-14T06:47:13.822Z,21.37
2023-02-14T06:49:40.268Z,21.83
2023-02-14T06:52:07.173Z,21.73
2023-02-14T06:54:33.631Z,21.20
2023-02-14T06:57:00.281Z,22.07
2023-02-14T06:59:26.780Z,21.17
2023-02-14T07:01:53.651Z,22.67
2023-02-14T07:04:20.137Z,26.20
2023-02-14T07:06:46.709Z,28.17
2023-02-14T07:09:16.909Z,24.50
2023-02-14T07:11:45.121Z,22.00
2023-02-14T07:14:12.142Z,25.70
2023-02-14T07:16:38.886Z,25.80
2023-02-14T07:19:05.383Z,25.63
2023-02-14T07:21:31.987Z,31.20
2023-02-14T07:23:58.432Z,31.30
2023-02-14T07:26:27.816Z,29.33
2023-02-14T07:28:54.588Z,25.20
2023-02-14T07:31:23.404Z,25.33
2023-02-14T07:33:51.075Z,24.33
2023-02-14T07:36:17.768Z,26.30
2023-02-14T07:38:44.517Z,26.50
2023-02-14T07:41:14.168Z,32.30
2023-02-14T07:43:40.668Z,25.40
2023-02-14T07:46:07.178Z,28.30
2023-02-14T07:48:34.567Z,31.77
2023-02-14T07:51:01.822Z,31.30
2023-02-14T07:53:28.525Z,30.47
2023-02-14T07:55:55.035Z,32.10
2023-02-14T07:58:21.884Z,34.90
2023-02-14T08:00:48.451Z,37.10
2023-02-14T08:03:15.498Z,36.60
2023-02-14T08:05:42.212Z,37.07
2023-02-14T08:08:08.820Z,40.60
2023-02-14T08:10:35.341Z,37.50
2023-02-14T08:13:02.181Z,34.80
2023-02-14T08:15:52.637Z,40.33
2023-02-14T08:18:20.538Z,38.17
2023-02-14T08:20:51.030Z,37.67
2023-02-14T08:23:19.097Z,37.90
2023-02-14T08:25:46.588Z,31.93
2023-02-14T08:28:16.226Z,39.43
2023-02-14T08:30:44.244Z,38.37
2023-02-14T08:33:11.484Z,36.60
2023-02-14T08:35:38.914Z,34.67
2023-02-14T08:38:05.550Z,38.80
2023-02-14T08:40:33.113Z,39.87
2023-02-14T08:42:59.727Z,37.20
2023-02-14T08:45:26.471Z,36.00
2023-02-14T08:47:52.944Z,34.53
2023-02-14T08:50:19.728Z,36.37
2023-02-14T08:52:46.341Z,34.67
2023-02-14T08:55:13.850Z,34.17
2023-02-14T08:57:40.692Z,38.37
2023-02-14T09:00:08.495Z,35.20
2023-02-14T09:02:35.001Z,36.40
2023-02-14T09:05:01.811Z,34.37
2023-02-14T09:07:28.294Z,34.57
2023-02-14T09:09:54.828Z,38.43
2023-02-14T09:12:21.320Z,39.33
2023-02-14T09:14:47.763Z,38.47
2023-02-14T09:17:15.721Z,38.00
2023-02-14T09:19:42.496Z,39.33
2023-02-14T09:22:10.909Z,44.63
2023-02-14T09:24:39.277Z,36.33
2023-02-14T09:27:06.478Z,38.00
2023-02-14T09:29:33.700Z,39.20
2023-02-14T09:32:01.985Z,37.73
2023-02-14T09:34:29.422Z,35.83
2023-02-14T09:36:55.949Z,38.03
2023-02-14T09:39:22.523Z,39.83
2023-02-14T09:41:58.194Z,37.30
2023-02-14T09:44:27.894Z,34.30
2023-02-14T09:46:59.441Z,34.90
2023-02-14T09:49:39.633Z,37.80
2023-02-14T09:52:12.405Z,35.13
2023-02-14T09:54:42.583Z,40.37
2023-02-14T09:57:23.048Z,32.90
2023-02-14T10:00:36.509Z,33.67
2023-02-14T10:03:02.956Z,36.03
2023-02-14T10:05:38.027Z,38.83
2023-02-14T10:08:49.893Z,54.93
2023-02-14T10:11:20.622Z,54.77
2023-02-14T10:13:59.937Z,60.20
2023-02-14T10:16:32.670Z,37.60
2023-02-14T10:18:59.140Z,52.80
2023-02-14T10:21:39.926Z,37.17
2023-02-14T10:24:30.532Z,35.57
2023-02-14T10:27:17.860Z,38.10
2023-02-14T10:29:44.447Z,53.90
2023-02-14T10:32:18.670Z,38.53
2023-02-14T10:34:49.201Z,34.00
2023-02-14T10:37:41.533Z,36.13
2023-02-14T10:40:10.891Z,33.17
2023-02-14T10:43:11.207Z,39.07
2023-02-14T10:46:17.775Z,32.70
2023-02-14T10:49:02.923Z,35.80
2023-02-14T10:51:46.675Z,35.60
2023-02-14T10:54:19.053Z,30.40
2023-02-14T10:56:53.041Z,33.90
2023-02-14T10:59:28.905Z,35.63
2023-02-14T11:01:59.100Z,33.00
2023-02-14T11:04:26.069Z,32.97
2023-02-14T11:06:53.709Z,34.83
2023-02-14T11:09:21.012Z,29.80
2023-02-14T11:11:53.950Z,33.17
2023-02-14T11:14:28.746Z,32.90
2023-02-14T11:16:57.631Z,35.20
2023-02-14T11:19:35.514Z,32.13
2023-02-14T11:22:04.343Z,34.70
2023-02-14T11:24:35.674Z,30.83
2023-02-14T11:27:10.073Z,29.83
2023-02-14T11:29:49.058Z,33.63
2023-02-14T11:32:24.490Z,32.90
2023-02-14T11:35:18.412Z,33.30
2023-02-14T11:37:51.020Z,32.93
2023-02-14T11:40:38.316Z,37.67
2023-02-14T11:43:14.269Z,29.77
2023-02-14T11:45:43.998Z,32.10
2023-02-14T11:48:38.652Z,32.17
2023-02-14T11:51:08.912Z,29.87
2023-02-14T11:53:46.335Z,33.50
2023-02-14T11:56:14.452Z,36.00
2023-02-14T11:58:43.074Z,29.80
2023-02-14T12:01:14.233Z,34.53
2023-02-14T12:03:47.180Z,32.07
2023-02-14T12:06:24.938Z,31.20
2023-02-14T12:08:51.416Z,29.20
2023-02-14T12:11:21.333Z,28.97
2023-02-14T12:13:56.196Z,30.40
2023-02-14T12:16:30.161Z,35.73
2023-02-14T12:19:02.114Z,29.90
2023-02-14T12:21:55.124Z,32.50
2023-02-14T12:24:39.705Z,32.13
2023-02-14T12:27:24.228Z,32.80
2023-02-14T12:30:14.214Z,28.17
2023-02-14T12:32:48.697Z,30.40
2023-02-14T12:35:38.314Z,33.67
2023-02-14T12:38:17.137Z,30.30
2023-02-14T12:41:02.054Z,30.17
2023-02-14T12:43:32.128Z,27.60
2023-02-14T12:46:34.777Z,27.40
2023-02-14T12:49:23.297Z,27.77
2023-02-14T12:52:13.060Z,33.50
2023-02-14T12:55:22.193Z,29.97
2023-02-14T12:58:00.158Z,28.60
2023-02-14T13:00:47.787Z,26.17
2023-02-14T13:03:29.319Z,28.53
2023-02-14T13:06:12.255Z,29.40
2023-02-14T13:08:49.107Z,27.80
2023-02-14T13:11:36.170Z,28.80
2023-02-14T13:14:27.466Z,27.20
2023-02-14T13:17:05.299Z,29.30
2023-02-14T13:19:49.258Z,28.13
2023-02-14T13:22:19.324Z,28.20
2023-02-14T13:24:50.852Z,29.10
2023-02-14T13:27:27.780Z,26.53
2023-02-14T13:30:12.003Z,29.73
2023-02-14T13:32:46.868Z,26.10
2023-02-14T13:35:17.336Z,30.50
2023-02-14T13:37:49.812Z,23.60
2023-02-14T13:40:20.799Z,24.10
2023-02-14T13:42:47.632Z,24.90
2023-02-14T13:45:39.330Z,24.73
2023-02-14T13:48:05.755Z,28.40
2023-02-14T13:50:40.068Z,29.30
2023-02-14T13:53:12.930Z,28.07
2023-02-14T13:55:44.447Z,24.73
2023-02-14T13:58:29.592Z,27.90
2023-02-14T14:00:56.542Z,26.20
2023-02-14T14:03:26.064Z,24.30
2023-02-14T14:06:10.704Z,26.10
2023-02-14T14:08:39.947Z,24.10
2023-02-14T14:11:20.800Z,21.20
2023-02-14T14:13:50.345Z,26.17
2023-02-14T14:16:29.119Z,25.87
2023-02-14T14:19:17.557Z,26.20
2023-02-14T14:21:59.953Z,31.47
2023-02-14T14:24:29.057Z,26.80
2023-02-14T14:27:06.232Z,32.00
2023-02-14T14:29:39.567Z,28.00
2023-02-14T14:32:19.411Z,27.37
2023-02-14T14:34:57.946Z,24.07
2023-02-14T14:37:28.638Z,26.73
2023-02-14T14:40:03.062Z,25.37
2023-02-14T14:42:35.612Z,24.53
2023-02-14T14:45:18.636Z,27.93
2023-02-14T14:47:46.698Z,22.70
2023-02-14T14:50:28.649Z,26.13
2023-02-14T14:53:03.019Z,26.00
2023-02-14T14:55:34.268Z,24.10
2023-02-14T14:58:06.162Z,25.80
2023-02-14T15:00:35.459Z,29.17
2023-02-14T15:03:11.924Z,23.00
2023-02-14T15:05:47.660Z,26.00
2023-02-14T15:08:22.457Z,24.17
2023-02-14T15:11:00.369Z,22.23
2023-02-14T15:13:53.606Z,27.57
2023-02-14T15:16:28.468Z,32.67
2023-02-14T15:19:07.097Z,30.77
2023-02-14T15:21:34.164Z,29.63
2023-02-14T15:24:03.044Z,21.40
2023-02-14T15:26:35.684Z,27.00
2023-02-14T15:29:07.536Z,21.70
2023-02-14T15:31:40.565Z,25.20
2023-02-14T15:34:08.176Z,27.90
2023-02-14T15:36:36.010Z,28.03
2023-02-14T15:39:06.795Z,23.73
2023-02-14T15:41:33.722Z,23.50
2023-02-14T15:44:00.234Z,26.40
2023-02-14T15:46:33.212Z,25.67
2023-02-14T15:49:01.337Z,26.00
2023-02-14T15:51:36.419Z,26.90
2023-02-14T15:54:07.553Z,25.20
2023-02-14T15:56:46.700Z,30.37
2023-02-14T15:59:26.404Z,28.20
2023-02-14T16:02:17.133Z,27.83
2023-02-14T16:04:43.729Z,30.40
2023-02-14T16:07:26.268Z,24.50
2023-02-14T16:10:23.805Z,26.47
2023-02-14T16:13:01.399Z,25.27
2023-02-14T16:15:32.826Z,27.83
2023-02-14T16:18:01.058Z,27.80
2023-02-14T16:20:39.084Z,26.13
2023-02-14T16:23:26.682Z,27.53
2023-02-14T16:25:54.637Z,27.97
2023-02-14T16:28:21.237Z,27.33
2023-02-14T16:30:54.288Z,27.27
2023-02-14T16:33:24.146Z,29.70
2023-02-14T16:35:51.164Z,26.77
2023-02-14T16:38:20.043Z,29.80
2023-02-14T16:40:52.786Z,29.10
2023-02-14T16:43:20.634Z,24.70
2023-02-14T16:45:47.718Z,24.60
2023-02-14T16:48:17.196Z,25.03
2023-02-14T16:50:45.031Z,30.00
2023-02-14T16:53:29.764Z,28.17
2023-02-14T16:55:57.494Z,26.93
2023-02-14T16:58:32.489Z,25.57
2023-02-14T17:00:59.303Z,27.90
2023-02-14T17:03:25.954Z,26.27
2023-02-14T17:05:53.008Z,26.80
2023-02-14T17:08:19.634Z,24.07
2023-02-14T17:10:48.630Z,27.90
2023-02-14T17:13:20.636Z,26.03
2023-02-14T17:15:48.288Z,28.47
2023-02-14T17:18:16.199Z,29.93
2023-02-14T17:20:42.747Z,26.00
2023-02-14T17:23:09.384Z,29.10
2023-02-14T17:25:35.889Z,25.50
2023-02-14T17:28:02.474Z,27.37
2023-02-14T17:30:29.100Z,22.87
2023-02-14T17:32:55.719Z,28.07
2023-02-14T17:35:22.241Z,27.83
2023-02-14T17:37:48.687Z,28.33
2023-02-14T17:40:15.193Z,29.40
2023-02-14T17:42:42.103Z,22.83
2023-02-14T17:45:11.640Z,27.83
2023-02-14T17:47:40.480Z,25.17
2023-02-14T17:50:07.720Z,21.50
2023-02-14T17:52:34.392Z,22.27
2023-02-14T17:55:01.085Z,24.80
2023-02-14T17:57:27.716Z,25.60
2023-02-14T17:59:54.219Z,23.50
2023-02-14T18:02:20.687Z,23.33
2023-02-14T18:04:48.278Z,23.23
2023-02-14T18:07:14.817Z,21.37
2023-02-14T18:09:41.466Z,21.10
2023-02-14T18:12:12.207Z,21.40
2023-02-14T18:14:40.921Z,24.47
2023-02-14T18:17:07.445Z,24.37
2023-02-14T18:19:33.923Z,23.80
2023-02-14T18:22:00.395Z,21.97
2023-02-14T18:24:26.903Z,33.20
2023-02-14T18:26:53.834Z,27.00
2023-02-14T18:29:20.347Z,22.00
2023-02-14T18:31:47.132Z,29.83
2023-02-14T18:34:13.833Z,26.20
2023-02-14T18:36:41.874Z,25.57
2023-02-14T18:39:09.322Z,21.50
2023-02-14T18:41:35.963Z,24.83
2023-02-14T18:44:02.664Z,23.43
2023-02-14T18:46:32.329Z,21.30
2023-02-14T18:48:59.380Z,22.97
2023-02-14T18:51:28.820Z,31.03
2023-02-14T18:53:56.859Z,22.47
2023-02-14T18:56:30.083Z,23.47
2023-02-14T18:59:02.377Z,22.80
2023-02-14T19:01:36.757Z,19.97
2023-02-14T19:04:06.376Z,21.53
2023-02-14T19:06:34.125Z,21.07
2023-02-14T19:09:02.472Z,21.30
2023-02-14T19:11:31.664Z,20.77
2023-02-14T19:14:00.844Z,25.00
2023-02-14T19:16:30.775Z,26.43
2023-02-14T19:18:58.977Z,32.30
2023-02-14T19:21:27.538Z,27.70
2023-02-14T19:23:56.357Z,32.10
2023-02-14T19:26:29.670Z,25.57
2023-02-14T19:28:58.914Z,28.57
2023-02-14T19:31:25.997Z,28.47
2023-02-14T19:33:52.885Z,25.00
2023-02-14T19:36:21.413Z,23.90
2023-02-14T19:38:50.612Z,27.43
2023-02-14T19:41:21.699Z,27.87
2023-02-14T19:43:48.833Z,28.53
2023-02-14T19:46:17.031Z,28.17
2023-02-14T19:48:44.602Z,27.03
2023-02-14T19:51:25.745Z,27.67
2023-02-14T19:53:54.298Z,59.57
2023-02-14T19:56:22.709Z,64.13
2023-02-14T19:58:50.836Z,45.13
2023-02-14T20:01:33.287Z,38.33
2023-02-14T20:04:00.169Z,31.20
2023-02-14T20:06:29.247Z,30.50
2023-02-14T20:08:56.301Z,32.20
2023-02-14T20:11:49.510Z,37.40
2023-02-14T20:14:35.915Z,30.63
2023-02-14T20:17:07.954Z,30.93
2023-02-14T20:19:35.743Z,32.60
2023-02-14T20:22:02.677Z,34.20
2023-02-14T20:24:32.094Z,31.77
2023-02-14T20:27:00.425Z,30.63
2023-02-14T20:29:27.933Z,31.50
2023-02-14T20:31:58.200Z,24.57
2023-02-14T20:34:24.812Z,27.23
2023-02-14T20:36:55.772Z,28.03
2023-02-14T20:39:28.892Z,29.33
2023-02-14T20:41:55.602Z,29.53
2023-02-14T20:44:22.295Z,28.20
2023-02-14T20:46:50.392Z,25.87
2023-02-14T20:49:17.516Z,30.20
2023-02-14T20:51:46.033Z,34.17
2023-02-14T20:54:12.737Z,36.83
2023-02-14T20:56:40.300Z,59.00
2023-02-14T20:59:08.653Z,42.67
2023-02-14T21:01:35.468Z,45.67
2023-02-14T21:04:02.101Z,34.00
2023-02-14T21:06:31.327Z,39.97
2023-02-14T21:08:57.869Z,30.87
2023-02-14T21:11:26.827Z,31.30
2023-02-14T21:13:55.258Z,31.23
2023-02-14T21:16:22.052Z,29.80
2023-02-14T21:18:55.168Z,33.90
2023-02-14T21:21:24.431Z,37.67
2023-02-14T21:23:52.778Z,36.17
2023-02-14T21:26:21.283Z,34.53
2023-02-14T21:28:48.503Z,34.03
2023-02-14T21:31:17.300Z,31.87
2023-02-14T21:33:43.960Z,28.73
2023-02-14T21:36:15.767Z,33.03
2023-02-14T21:38:42.744Z,28.70
2023-02-14T21:41:11.815Z,33.73
2023-02-14T21:43:40.541Z,32.80
2023-02-14T21:46:09.770Z,36.13
2023-02-14T21:48:55.012Z,33.30
2023-02-14T21:51:22.182Z,32.20
2023-02-14T21:53:50.555Z,28.43
2023-02-14T21:56:19.828Z,32.57
2023-02-14T21:58:48.310Z,40.37
2023-02-14T22:01:21.154Z,39.80
2023-02-14T22:03:48.496Z,35.33
2023-02-14T22:06:15.575Z,36.47
2023-02-14T22:08:43.191Z,35.90
2023-02-14T22:11:13.068Z,32.83
2023-02-14T22:13:39.768Z,37.10
2023-02-14T22:16:12.052Z,35.20
2023-02-14T22:18:39.045Z,34.70
2023-02-14T22:21:08.656Z,34.53
2023-02-14T22:23:35.674Z,34.73
2023-02-14T22:26:22.989Z,33.00
2023-02-14T22:28:51.001Z,47.73
2023-02-14T22:31:18.567Z,35.10
2023-02-14T22:33:46.077Z,33.90
2023-02-14T22:36:12.652Z,35.23
2023-02-14T22:38:39.547Z,34.30
2023-02-14T22:41:11.836Z,31.70
2023-02-14T22:43:39.502Z,34.27
2023-02-14T22:46:09.380Z,32.10
2023-02-14T22:48:36.720Z,31.93
2023-02-14T22:51:08.374Z,31.40
2023-02-14T22:53:35.061Z,30.27
2023-02-14T22:56:35.419Z,31.60
2023-02-14T22:59:04.815Z,29.30
2023-02-14T23:01:32.720Z,28.53
2023-02-14T23:04:00.939Z,28.67
2023-02-14T23:06:29.905Z,26.27
2023-02-14T23:08:57.173Z,26.97
2023-02-14T23:11:26.493Z,27.63
2023-02-14T23:14:12.123Z,29.43
2023-02-14T23:16:57.385Z,28.50
2023-02-14T23:19:45.015Z,30.37
2023-02-14T23:22:16.030Z,32.20
2023-02-14T23:24:42.557Z,31.03
2023-02-14T23:27:09.706Z,32.57
2023-02-14T23:29:37.270Z,34.27
2023-02-14T23:32:05.186Z,33.87
2023-02-14T23:34:34.285Z,31.07
2023-02-14T23:37:01.505Z,28.53
2023-02-14T23:39:28.049Z,31.93
2023-02-14T23:41:55.185Z,30.40
2023-02-14T23:44:23.691Z,32.90
2023-02-14T23:46:52.376Z,37.47
2023-02-14T23:49:19.731Z,32.03
2023-02-14T23:51:47.620Z,33.33
2023-02-14T23:54:14.828Z,32.70
2023-02-14T23:56:43.480Z,34.60
2023-02-14T23:59:10.278Z,29.70
